sensor_id;sensor_type;location;lat;lon;timestamp;P1;durP1;ratioP1;P2;durP2;ratioP2
10979;SDS011;5543;51.734;8.744;2023-07-29T00:02:16;1.40;;;1.30;;
10979;SDS011;5543;51.734;8.744;2023-07-29T00:04:44;1.45;;;1.15;;
10979;SDS011;5543;51.734;8.744;2023-07-29T00:07:12;1.30;;;1.20;;
10979;SDS011;5543;51.734;8.744;2023-07-29T00:09:40;1.90;;;1.33;;
10979;SDS011;5543;51.734;8.744;2023-07-29T00:12:10;5.90;;;1.65;;
10979;SDS011;5543;51.734;8.744;2023-07-29T00:14:38;1.70;;;1.60;;
10979;SDS011;5543;51.734;8.744;2023-07-29T00:17:06;1.45;;;1.30;;
10979;SDS011;5543;51.734;8.744;2023-07-29T00:19:34;1.63;;;1.35;;
10979;SDS011;5543;51.734;8.744;2023-07-29T00:22:04;1.55;;;1.40;;
10979;SDS011;5543;51.734;8.744;2023-07-29T00:24:34;2.15;;;1.50;;
10979;SDS011;5543;51.734;8.744;2023-07-29T00:27:03;1.85;;;1.60;;
10979;SDS011;5543;51.734;8.744;2023-07-29T00:29:32;1.98;;;1.40;;
10979;SDS011;5543;51.734;8.744;2023-07-29T00:32:00;1.75;;;1.40;;
10979;SDS011;5543;51.734;8.744;2023-07-29T00:34:29;1.73;;;1.48;;
10979;SDS011;5543;51.734;8.744;2023-07-29T00:36:57;2.65;;;1.80;;
10979;SDS011;5543;51.734;8.744;2023-07-29T00:39:25;1.52;;;1.42;;
10979;SDS011;5543;51.734;8.744;2023-07-29T00:41:53;2.03;;;1.27;;
10979;SDS011;5543;51.734;8.744;2023-07-29T00:44:22;3.80;;;1.20;;
10979;SDS011;5543;51.734;8.744;2023-07-29T00:46:52;1.30;;;1.20;;
10979;SDS011;5543;51.734;8.744;2023-07-29T00:49:20;1.50;;;1.40;;
10979;SDS011;5543;51.734;8.744;2023-07-29T00:51:49;1.45;;;1.23;;
10979;SDS011;5543;51.734;8.744;2023-07-29T00:54:17;1.70;;;1.60;;
10979;SDS011;5543;51.734;8.744;2023-07-29T00:56:45;1.50;;;1.30;;
10979;SDS011;5543;51.734;8.744;2023-07-29T00:59:14;1.35;;;1.20;;
10979;SDS011;5543;51.734;8.744;2023-07-29T01:01:42;1.55;;;1.45;;
10979;SDS011;5543;51.734;8.744;2023-07-29T01:04:12;1.80;;;1.27;;
10979;SDS011;5543;51.734;8.744;2023-07-29T01:06:41;3.58;;;1.30;;
10979;SDS011;5543;51.734;8.744;2023-07-29T01:09:24;1.38;;;1.27;;
10979;SDS011;5543;51.734;8.744;2023-07-29T01:11:58;1.50;;;1.40;;
10979;SDS011;5543;51.734;8.744;2023-07-29T01:14:49;1.88;;;1.27;;
10979;SDS011;5543;51.734;8.744;2023-07-29T01:17:23;1.27;;;1.17;;
10979;SDS011;5543;51.734;8.744;2023-07-29T01:20:00;1.40;;;1.30;;
10979;SDS011;5543;51.734;8.744;2023-07-29T01:22:32;1.80;;;1.38;;
10979;SDS011;5543;51.734;8.744;2023-07-29T01:25:03;3.75;;;1.40;;
10979;SDS011;5543;51.734;8.744;2023-07-29T01:27:31;3.40;;;1.40;;
10979;SDS011;5543;51.734;8.744;2023-07-29T01:30:00;1.58;;;1.48;;
10979;SDS011;5543;51.734;8.744;2023-07-29T01:32:32;1.65;;;1.45;;
10979;SDS011;5543;51.734;8.744;2023-07-29T01:35:13;1.30;;;1.20;;
10979;SDS011;5543;51.734;8.744;2023-07-29T01:37:48;1.55;;;1.33;;
10979;SDS011;5543;51.734;8.744;2023-07-29T01:40:22;1.70;;;1.40;;
10979;SDS011;5543;51.734;8.744;2023-07-29T01:42:51;1.58;;;1.48;;
10979;SDS011;5543;51.734;8.744;2023-07-29T01:45:22;1.15;;;1.08;;
10979;SDS011;5543;51.734;8.744;2023-07-29T01:47:52;1.55;;;1.30;;
10979;SDS011;5543;51.734;8.744;2023-07-29T01:50:20;1.20;;;1.10;;
10979;SDS011;5543;51.734;8.744;2023-07-29T01:52:48;1.38;;;1.20;;
10979;SDS011;5543;51.734;8.744;2023-07-29T01:55:16;1.50;;;1.40;;
10979;SDS011;5543;51.734;8.744;2023-07-29T01:57:46;1.50;;;1.15;;
10979;SDS011;5543;51.734;8.744;2023-07-29T02:00:14;1.65;;;1.45;;
10979;SDS011;5543;51.734;8.744;2023-07-29T02:02:44;1.30;;;1.20;;
10979;SDS011;5543;51.734;8.744;2023-07-29T02:05:12;1.67;;;1.58;;
10979;SDS011;5543;51.734;8.744;2023-07-29T02:07:40;3.28;;;1.30;;
10979;SDS011;5543;51.734;8.744;2023-07-29T02:10:08;1.52;;;1.23;;
10979;SDS011;5543;51.734;8.744;2023-07-29T02:12:36;1.27;;;1.17;;
10979;SDS011;5543;51.734;8.744;2023-07-29T02:15:09;2.20;;;1.50;;
10979;SDS011;5543;51.734;8.744;2023-07-29T02:17:39;3.53;;;1.50;;
10979;SDS011;5543;51.734;8.744;2023-07-29T02:20:09;1.40;;;1.30;;
10979;SDS011;5543;51.734;8.744;2023-07-29T02:22:38;3.10;;;1.40;;
10979;SDS011;5543;51.734;8.744;2023-07-29T02:25:06;1.45;;;1.30;;
10979;SDS011;5543;51.734;8.744;2023-07-29T02:27:36;2.70;;;1.30;;
10979;SDS011;5543;51.734;8.744;2023-07-29T02:30:04;1.77;;;1.33;;
10979;SDS011;5543;51.734;8.744;2023-07-29T02:32:36;2.20;;;1.63;;
10979;SDS011;5543;51.734;8.744;2023-07-29T02:35:04;1.40;;;1.30;;
10979;SDS011;5543;51.734;8.744;2023-07-29T02:37:33;1.40;;;1.17;;
10979;SDS011;5543;51.734;8.744;2023-07-29T02:40:01;1.45;;;1.35;;
10979;SDS011;5543;51.734;8.744;2023-07-29T02:42:30;1.30;;;1.20;;
10979;SDS011;5543;51.734;8.744;2023-07-29T02:44:58;4.75;;;1.50;;
10979;SDS011;5543;51.734;8.744;2023-07-29T02:47:27;1.58;;;1.40;;
10979;SDS011;5543;51.734;8.744;2023-07-29T02:49:56;1.30;;;1.20;;
10979;SDS011;5543;51.734;8.744;2023-07-29T02:52:24;1.23;;;1.15;;
10979;SDS011;5543;51.734;8.744;2023-07-29T02:54:52;1.45;;;1.35;;
10979;SDS011;5543;51.734;8.744;2023-07-29T02:57:20;2.85;;;1.20;;
10979;SDS011;5543;51.734;8.744;2023-07-29T02:59:48;1.50;;;1.20;;
10979;SDS011;5543;51.734;8.744;2023-07-29T03:02:16;1.70;;;1.60;;
10979;SDS011;5543;51.734;8.744;2023-07-29T03:04:46;1.25;;;1.15;;
10979;SDS011;5543;51.734;8.744;2023-07-29T03:07:15;1.70;;;1.40;;
10979;SDS011;5543;51.734;8.744;2023-07-29T03:09:43;1.25;;;1.15;;
10979;SDS011;5543;51.734;8.744;2023-07-29T03:12:11;1.38;;;1.20;;
10979;SDS011;5543;51.734;8.744;2023-07-29T03:14:40;1.17;;;1.08;;
10979;SDS011;5543;51.734;8.744;2023-07-29T03:17:08;1.52;;;1.20;;
10979;SDS011;5543;51.734;8.744;2023-07-29T03:19:37;1.50;;;1.40;;
10979;SDS011;5543;51.734;8.744;2023-07-29T03:22:06;1.40;;;1.27;;
10979;SDS011;5543;51.734;8.744;2023-07-29T03:24:34;1.70;;;1.60;;
10979;SDS011;5543;51.734;8.744;2023-07-29T03:27:03;1.40;;;1.25;;
10979;SDS011;5543;51.734;8.744;2023-07-29T03:29:31;1.65;;;1.38;;
10979;SDS011;5543;51.734;8.744;2023-07-29T03:31:59;2.17;;;1.50;;
10979;SDS011;5543;51.734;8.744;2023-07-29T03:34:28;2.40;;;1.50;;
10979;SDS011;5543;51.734;8.744;2023-07-29T03:36:56;1.65;;;1.35;;
10979;SDS011;5543;51.734;8.744;2023-07-29T03:39:25;1.70;;;1.20;;
10979;SDS011;5543;51.734;8.744;2023-07-29T03:41:53;1.52;;;1.30;;
10979;SDS011;5543;51.734;8.744;2023-07-29T03:44:21;1.30;;;1.20;;
10979;SDS011;5543;51.734;8.744;2023-07-29T03:46:50;1.55;;;1.30;;
10979;SDS011;5543;51.734;8.744;2023-07-29T03:49:18;1.50;;;1.40;;
10979;SDS011;5543;51.734;8.744;2023-07-29T03:51:46;1.40;;;1.30;;
10979;SDS011;5543;51.734;8.744;2023-07-29T03:54:14;1.92;;;1.40;;
10979;SDS011;5543;51.734;8.744;2023-07-29T03:56:43;1.83;;;1.55;;
10979;SDS011;5543;51.734;8.744;2023-07-29T03:59:12;1.58;;;1.48;;
10979;SDS011;5543;51.734;8.744;2023-07-29T04:01:40;2.08;;;1.80;;
10979;SDS011;5543;51.734;8.744;2023-07-29T04:04:08;1.55;;;1.45;;
10979;SDS011;5543;51.734;8.744;2023-07-29T04:06:36;1.63;;;1.40;;
10979;SDS011;5543;51.734;8.744;2023-07-29T04:09:05;2.25;;;1.70;;
10979;SDS011;5543;51.734;8.744;2023-07-29T04:11:33;1.88;;;1.50;;
10979;SDS011;5543;51.734;8.744;2023-07-29T04:14:03;2.97;;;1.38;;
10979;SDS011;5543;51.734;8.744;2023-07-29T04:16:31;2.25;;;1.65;;
10979;SDS011;5543;51.734;8.744;2023-07-29T04:18:59;1.40;;;1.30;;
10979;SDS011;5543;51.734;8.744;2023-07-29T04:21:27;1.85;;;1.60;;
10979;SDS011;5543;51.734;8.744;2023-07-29T04:23:56;1.73;;;1.60;;
10979;SDS011;5543;51.734;8.744;2023-07-29T04:26:24;1.88;;;1.67;;
10979;SDS011;5543;51.734;8.744;2023-07-29T04:28:52;1.38;;;1.20;;
10979;SDS011;5543;51.734;8.744;2023-07-29T04:31:21;1.40;;;1.30;;
10979;SDS011;5543;51.734;8.744;2023-07-29T04:33:49;1.88;;;1.55;;
10979;SDS011;5543;51.734;8.744;2023-07-29T04:36:17;1.50;;;1.30;;
10979;SDS011;5543;51.734;8.744;2023-07-29T04:38:45;1.88;;;1.63;;
10979;SDS011;5543;51.734;8.744;2023-07-29T04:41:14;2.38;;;1.67;;
10979;SDS011;5543;51.734;8.744;2023-07-29T04:43:42;1.58;;;1.48;;
10979;SDS011;5543;51.734;8.744;2023-07-29T04:46:10;1.38;;;1.27;;
10979;SDS011;5543;51.734;8.744;2023-07-29T04:48:39;1.30;;;1.20;;
10979;SDS011;5543;51.734;8.744;2023-07-29T04:51:08;1.52;;;1.42;;
10979;SDS011;5543;51.734;8.744;2023-07-29T04:53:36;1.92;;;1.65;;
10979;SDS011;5543;51.734;8.744;2023-07-29T04:56:04;1.73;;;1.60;;
10979;SDS011;5543;51.734;8.744;2023-07-29T04:58:32;1.85;;;1.50;;
10979;SDS011;5543;51.734;8.744;2023-07-29T05:01:01;3.10;;;1.55;;
10979;SDS011;5543;51.734;8.744;2023-07-29T05:03:30;1.60;;;1.30;;
10979;SDS011;5543;51.734;8.744;2023-07-29T05:05:59;1.40;;;1.30;;
10979;SDS011;5543;51.734;8.744;2023-07-29T05:08:27;2.25;;;1.50;;
10979;SDS011;5543;51.734;8.744;2023-07-29T05:10:56;1.50;;;1.40;;
10979;SDS011;5543;51.734;8.744;2023-07-29T05:13:24;1.38;;;1.27;;
10979;SDS011;5543;51.734;8.744;2023-07-29T05:15:52;1.60;;;1.42;;
10979;SDS011;5543;51.734;8.744;2023-07-29T05:18:20;1.55;;;1.45;;
10979;SDS011;5543;51.734;8.744;2023-07-29T05:20:49;1.80;;;1.70;;
10979;SDS011;5543;51.734;8.744;2023-07-29T05:23:19;1.73;;;1.60;;
10979;SDS011;5543;51.734;8.744;2023-07-29T05:25:47;1.40;;;1.30;;
10979;SDS011;5543;51.734;8.744;2023-07-29T05:28:15;1.60;;;1.40;;
10979;SDS011;5543;51.734;8.744;2023-07-29T05:30:43;1.95;;;1.40;;
10979;SDS011;5543;51.734;8.744;2023-07-29T05:33:11;1.17;;;1.05;;
10979;SDS011;5543;51.734;8.744;2023-07-29T05:35:40;1.33;;;1.23;;
10979;SDS011;5543;51.734;8.744;2023-07-29T05:38:08;1.42;;;1.33;;
10979;SDS011;5543;51.734;8.744;2023-07-29T05:40:37;2.05;;;1.35;;
10979;SDS011;5543;51.734;8.744;2023-07-29T05:43:05;1.30;;;1.20;;
10979;SDS011;5543;51.734;8.744;2023-07-29T05:45:33;2.10;;;1.42;;
10979;SDS011;5543;51.734;8.744;2023-07-29T05:48:02;2.13;;;1.25;;
10979;SDS011;5543;51.734;8.744;2023-07-29T05:50:30;1.45;;;1.33;;
10979;SDS011;5543;51.734;8.744;2023-07-29T05:52:58;1.85;;;1.15;;
10979;SDS011;5543;51.734;8.744;2023-07-29T05:55:26;1.10;;;1.00;;
10979;SDS011;5543;51.734;8.744;2023-07-29T05:57:56;1.13;;;1.02;;
10979;SDS011;5543;51.734;8.744;2023-07-29T06:00:24;1.15;;;1.08;;
10979;SDS011;5543;51.734;8.744;2023-07-29T06:02:52;1.35;;;1.25;;
10979;SDS011;5543;51.734;8.744;2023-07-29T06:05:20;1.42;;;1.23;;
10979;SDS011;5543;51.734;8.744;2023-07-29T06:07:48;1.88;;;1.20;;
10979;SDS011;5543;51.734;8.744;2023-07-29T06:10:16;1.27;;;1.13;;
10979;SDS011;5543;51.734;8.744;2023-07-29T06:12:45;1.10;;;1.00;;
10979;SDS011;5543;51.734;8.744;2023-07-29T06:15:15;1.23;;;1.13;;
10979;SDS011;5543;51.734;8.744;2023-07-29T06:17:43;2.92;;;1.38;;
10979;SDS011;5543;51.734;8.744;2023-07-29T06:20:11;3.92;;;3.05;;
10979;SDS011;5543;51.734;8.744;2023-07-29T06:22:39;7.45;;;5.95;;
10979;SDS011;5543;51.734;8.744;2023-07-29T06:25:08;15.75;;;11.30;;
10979;SDS011;5543;51.734;8.744;2023-07-29T06:27:36;7.25;;;5.18;;
10979;SDS011;5543;51.734;8.744;2023-07-29T06:30:05;2.20;;;1.75;;
10979;SDS011;5543;51.734;8.744;2023-07-29T06:32:35;1.52;;;1.17;;
10979;SDS011;5543;51.734;8.744;2023-07-29T06:35:04;2.65;;;1.58;;
10979;SDS011;5543;51.734;8.744;2023-07-29T06:37:33;1.27;;;1.17;;
10979;SDS011;5543;51.734;8.744;2023-07-29T06:40:01;1.27;;;1.17;;
10979;SDS011;5543;51.734;8.744;2023-07-29T06:42:29;1.30;;;1.08;;
10979;SDS011;5543;51.734;8.744;2023-07-29T06:44:57;1.52;;;1.30;;
10979;SDS011;5543;51.734;8.744;2023-07-29T06:47:26;1.40;;;1.20;;
10979;SDS011;5543;51.734;8.744;2023-07-29T06:49:55;1.70;;;1.30;;
10979;SDS011;5543;51.734;8.744;2023-07-29T06:52:23;1.25;;;1.00;;
10979;SDS011;5543;51.734;8.744;2023-07-29T06:54:51;1.70;;;1.17;;
10979;SDS011;5543;51.734;8.744;2023-07-29T06:57:20;2.17;;;1.60;;
10979;SDS011;5543;51.734;8.744;2023-07-29T06:59:48;1.30;;;1.20;;
10979;SDS011;5543;51.734;8.744;2023-07-29T07:02:16;1.70;;;1.33;;
10979;SDS011;5543;51.734;8.744;2023-07-29T07:04:44;1.20;;;1.10;;
10979;SDS011;5543;51.734;8.744;2023-07-29T07:07:14;2.00;;;1.60;;
10979;SDS011;5543;51.734;8.744;2023-07-29T07:09:43;1.40;;;1.30;;
10979;SDS011;5543;51.734;8.744;2023-07-29T07:12:11;3.00;;;1.50;;
10979;SDS011;5543;51.734;8.744;2023-07-29T07:14:39;1.80;;;1.70;;
10979;SDS011;5543;51.734;8.744;2023-07-29T07:17:07;2.88;;;1.35;;
10979;SDS011;5543;51.734;8.744;2023-07-29T07:19:38;1.88;;;1.25;;
10979;SDS011;5543;51.734;8.744;2023-07-29T07:22:07;1.45;;;1.20;;
10979;SDS011;5543;51.734;8.744;2023-07-29T07:24:36;1.40;;;1.30;;
10979;SDS011;5543;51.734;8.744;2023-07-29T07:27:04;4.68;;;3.47;;
10979;SDS011;5543;51.734;8.744;2023-07-29T07:29:33;3.72;;;3.15;;
10979;SDS011;5543;51.734;8.744;2023-07-29T07:32:01;3.72;;;2.85;;
10979;SDS011;5543;51.734;8.744;2023-07-29T07:34:29;2.50;;;2.20;;
10979;SDS011;5543;51.734;8.744;2023-07-29T07:36:59;3.55;;;2.70;;
10979;SDS011;5543;51.734;8.744;2023-07-29T07:39:27;3.13;;;2.67;;
10979;SDS011;5543;51.734;8.744;2023-07-29T07:41:57;5.10;;;3.42;;
10979;SDS011;5543;51.734;8.744;2023-07-29T07:44:27;4.90;;;3.58;;
10979;SDS011;5543;51.734;8.744;2023-07-29T07:46:54;6.88;;;4.38;;
10979;SDS011;5543;51.734;8.744;2023-07-29T07:49:22;5.18;;;3.58;;
10979;SDS011;5543;51.734;8.744;2023-07-29T07:51:50;4.15;;;3.60;;
10979;SDS011;5543;51.734;8.744;2023-07-29T07:54:18;6.45;;;4.43;;
10979;SDS011;5543;51.734;8.744;2023-07-29T07:56:47;7.43;;;4.25;;
10979;SDS011;5543;51.734;8.744;2023-07-29T07:59:16;7.82;;;4.45;;
10979;SDS011;5543;51.734;8.744;2023-07-29T08:01:44;6.63;;;5.18;;
10979;SDS011;5543;51.734;8.744;2023-07-29T08:04:13;5.25;;;4.28;;
10979;SDS011;5543;51.734;8.744;2023-07-29T08:06:41;7.05;;;5.03;;
10979;SDS011;5543;51.734;8.744;2023-07-29T08:09:09;6.05;;;4.38;;
10979;SDS011;5543;51.734;8.744;2023-07-29T08:11:37;6.40;;;4.55;;
10979;SDS011;5543;51.734;8.744;2023-07-29T08:14:06;6.03;;;4.35;;
10979;SDS011;5543;51.734;8.744;2023-07-29T08:16:35;6.20;;;4.13;;
10979;SDS011;5543;51.734;8.744;2023-07-29T08:19:04;6.25;;;4.45;;
10979;SDS011;5543;51.734;8.744;2023-07-29T08:21:33;4.53;;;3.60;;
10979;SDS011;5543;51.734;8.744;2023-07-29T08:24:01;4.70;;;3.78;;
10979;SDS011;5543;51.734;8.744;2023-07-29T08:26:29;4.57;;;3.70;;
10979;SDS011;5543;51.734;8.744;2023-07-29T08:28:58;7.97;;;4.35;;
10979;SDS011;5543;51.734;8.744;2023-07-29T08:31:27;3.80;;;3.38;;
10979;SDS011;5543;51.734;8.744;2023-07-29T08:33:56;5.25;;;3.85;;
10979;SDS011;5543;51.734;8.744;2023-07-29T08:36:25;5.40;;;3.95;;
10979;SDS011;5543;51.734;8.744;2023-07-29T08:38:53;6.00;;;4.45;;
10979;SDS011;5543;51.734;8.744;2023-07-29T08:41:24;5.22;;;3.50;;
10979;SDS011;5543;51.734;8.744;2023-07-29T08:44:24;5.45;;;3.60;;
10979;SDS011;5543;51.734;8.744;2023-07-29T08:46:55;4.32;;;3.50;;
10979;SDS011;5543;51.734;8.744;2023-07-29T08:49:25;5.45;;;3.47;;
10979;SDS011;5543;51.734;8.744;2023-07-29T08:51:55;4.20;;;3.67;;
10979;SDS011;5543;51.734;8.744;2023-07-29T08:54:26;4.20;;;3.67;;
10979;SDS011;5543;51.734;8.744;2023-07-29T08:56:54;5.45;;;3.85;;
10979;SDS011;5543;51.734;8.744;2023-07-29T08:59:22;5.00;;;4.00;;
10979;SDS011;5543;51.734;8.744;2023-07-29T09:01:51;6.10;;;4.47;;
10979;SDS011;5543;51.734;8.744;2023-07-29T09:04:21;5.47;;;4.10;;
10979;SDS011;5543;51.734;8.744;2023-07-29T09:06:52;4.65;;;3.60;;
10979;SDS011;5543;51.734;8.744;2023-07-29T09:09:23;4.35;;;3.55;;
10979;SDS011;5543;51.734;8.744;2023-07-29T09:12:17;4.70;;;3.67;;
10979;SDS011;5543;51.734;8.744;2023-07-29T09:14:57;4.47;;;3.55;;
10979;SDS011;5543;51.734;8.744;2023-07-29T09:20:39;3.53;;;2.55;;
10979;SDS011;5543;51.734;8.744;2023-07-29T09:23:32;2.92;;;2.42;;
10979;SDS011;5543;51.734;8.744;2023-07-29T09:26:27;2.22;;;2.00;;
10979;SDS011;5543;51.734;8.744;2023-07-29T09:29:22;2.20;;;2.00;;
10979;SDS011;5543;51.734;8.744;2023-07-29T09:32:18;2.00;;;1.80;;
10979;SDS011;5543;51.734;8.744;2023-07-29T09:35:08;2.78;;;2.00;;
10979;SDS011;5543;51.734;8.744;2023-07-29T09:37:55;2.13;;;1.92;;
10979;SDS011;5543;51.734;8.744;2023-07-29T09:40:56;2.55;;;2.13;;
10979;SDS011;5543;51.734;8.744;2023-07-29T09:43:55;2.20;;;2.00;;
10979;SDS011;5543;51.734;8.744;2023-07-29T09:46:53;3.17;;;2.15;;
10979;SDS011;5543;51.734;8.744;2023-07-29T09:49:28;2.20;;;2.00;;
10979;SDS011;5543;51.734;8.744;2023-07-29T09:52:08;2.95;;;1.80;;
10979;SDS011;5543;51.734;8.744;2023-07-29T09:54:43;2.20;;;2.00;;
10979;SDS011;5543;51.734;8.744;2023-07-29T09:57:24;3.00;;;1.60;;
10979;SDS011;5543;51.734;8.744;2023-07-29T10:00:30;1.73;;;1.63;;
10979;SDS011;5543;51.734;8.744;2023-07-29T10:03:37;2.05;;;1.50;;
10979;SDS011;5543;51.734;8.744;2023-07-29T10:06:26;2.03;;;1.40;;
10979;SDS011;5543;51.734;8.744;2023-07-29T10:09:32;1.40;;;1.20;;
10979;SDS011;5543;51.734;8.744;2023-07-29T10:12:32;1.20;;;1.08;;
10979;SDS011;5543;51.734;8.744;2023-07-29T10:15:21;1.20;;;1.10;;
10979;SDS011;5543;51.734;8.744;2023-07-29T10:19:25;1.02;;;0.98;;
10979;SDS011;5543;51.734;8.744;2023-07-29T10:22:17;1.02;;;0.95;;
10979;SDS011;5543;51.734;8.744;2023-07-29T10:24:52;1.27;;;0.77;;
10979;SDS011;5543;51.734;8.744;2023-07-29T10:27:52;1.33;;;0.90;;
10979;SDS011;5543;51.734;8.744;2023-07-29T10:30:35;1.23;;;1.10;;
10979;SDS011;5543;51.734;8.744;2023-07-29T10:33:25;0.70;;;0.70;;
10979;SDS011;5543;51.734;8.744;2023-07-29T10:36:17;0.93;;;0.90;;
10979;SDS011;5543;51.734;8.744;2023-07-29T10:39:08;0.80;;;0.80;;
10979;SDS011;5543;51.734;8.744;2023-07-29T10:42:01;0.75;;;0.75;;
10979;SDS011;5543;51.734;8.744;2023-07-29T10:44:53;0.80;;;0.80;;
10979;SDS011;5543;51.734;8.744;2023-07-29T10:47:52;0.70;;;0.70;;
10979;SDS011;5543;51.734;8.744;2023-07-29T10:50:47;0.50;;;0.50;;
10979;SDS011;5543;51.734;8.744;2023-07-29T10:54:09;1.13;;;0.80;;
10979;SDS011;5543;51.734;8.744;2023-07-29T10:57:18;0.80;;;0.80;;
10979;SDS011;5543;51.734;8.744;2023-07-29T11:03:13;1.15;;;1.05;;
10979;SDS011;5543;51.734;8.744;2023-07-29T11:05:43;0.73;;;0.73;;
10979;SDS011;5543;51.734;8.744;2023-07-29T11:08:20;1.40;;;1.00;;
10979;SDS011;5543;51.734;8.744;2023-07-29T11:11:05;1.60;;;1.17;;
10979;SDS011;5543;51.734;8.744;2023-07-29T11:13:34;0.82;;;0.82;;
10979;SDS011;5543;51.734;8.744;2023-07-29T11:16:04;0.93;;;0.93;;
10979;SDS011;5543;51.734;8.744;2023-07-29T11:18:33;1.83;;;1.23;;
10979;SDS011;5543;51.734;8.744;2023-07-29T11:21:02;1.20;;;1.10;;
10979;SDS011;5543;51.734;8.744;2023-07-29T11:23:32;1.40;;;1.00;;
10979;SDS011;5543;51.734;8.744;2023-07-29T11:26:01;1.45;;;1.35;;
10979;SDS011;5543;51.734;8.744;2023-07-29T11:28:37;1.20;;;1.10;;
10979;SDS011;5543;51.734;8.744;2023-07-29T11:31:06;0.95;;;0.95;;
10979;SDS011;5543;51.734;8.744;2023-07-29T11:33:34;1.40;;;1.23;;
10979;SDS011;5543;51.734;8.744;2023-07-29T11:36:02;1.30;;;1.20;;
10979;SDS011;5543;51.734;8.744;2023-07-29T11:38:31;1.20;;;1.10;;
10979;SDS011;5543;51.734;8.744;2023-07-29T11:41:03;1.13;;;1.10;;
10979;SDS011;5543;51.734;8.744;2023-07-29T11:43:35;1.40;;;1.30;;
10979;SDS011;5543;51.734;8.744;2023-07-29T11:46:04;1.25;;;1.15;;
10979;SDS011;5543;51.734;8.744;2023-07-29T11:48:32;1.35;;;1.10;;
10979;SDS011;5543;51.734;8.744;2023-07-29T11:51:01;1.15;;;1.00;;
10979;SDS011;5543;51.734;8.744;2023-07-29T11:53:30;1.20;;;1.10;;
10979;SDS011;5543;51.734;8.744;2023-07-29T11:55:58;1.10;;;1.00;;
10979;SDS011;5543;51.734;8.744;2023-07-29T11:58:26;1.27;;;1.17;;
10979;SDS011;5543;51.734;8.744;2023-07-29T12:00:56;1.40;;;1.30;;
10979;SDS011;5543;51.734;8.744;2023-07-29T12:03:25;1.17;;;1.10;;
10979;SDS011;5543;51.734;8.744;2023-07-29T12:05:54;1.40;;;1.30;;
10979;SDS011;5543;51.734;8.744;2023-07-29T12:08:22;1.00;;;1.00;;
10979;SDS011;5543;51.734;8.744;2023-07-29T12:10:50;1.27;;;1.17;;
10979;SDS011;5543;51.734;8.744;2023-07-29T12:13:19;1.30;;;1.20;;
10979;SDS011;5543;51.734;8.744;2023-07-29T12:15:52;1.45;;;1.35;;
10979;SDS011;5543;51.734;8.744;2023-07-29T12:18:30;1.50;;;1.25;;
10979;SDS011;5543;51.734;8.744;2023-07-29T12:20:59;1.25;;;1.20;;
10979;SDS011;5543;51.734;8.744;2023-07-29T12:23:28;1.50;;;1.40;;
10979;SDS011;5543;51.734;8.744;2023-07-29T12:25:57;1.65;;;1.55;;
10979;SDS011;5543;51.734;8.744;2023-07-29T12:28:26;1.40;;;1.30;;
10979;SDS011;5543;51.734;8.744;2023-07-29T12:30:54;1.63;;;1.52;;
10979;SDS011;5543;51.734;8.744;2023-07-29T12:33:31;2.05;;;1.70;;
10979;SDS011;5543;51.734;8.744;2023-07-29T12:36:00;1.70;;;1.60;;
10979;SDS011;5543;51.734;8.744;2023-07-29T12:38:28;1.60;;;1.50;;
10979;SDS011;5543;51.734;8.744;2023-07-29T12:40:56;1.63;;;1.52;;
10979;SDS011;5543;51.734;8.744;2023-07-29T12:43:25;1.75;;;1.65;;
10979;SDS011;5543;51.734;8.744;2023-07-29T12:45:53;9.68;;;7.18;;
10979;SDS011;5543;51.734;8.744;2023-07-29T12:48:21;2.47;;;2.28;;
10979;SDS011;5543;51.734;8.744;2023-07-29T12:50:51;1.90;;;1.80;;
10979;SDS011;5543;51.734;8.744;2023-07-29T12:53:19;1.77;;;1.67;;
10979;SDS011;5543;51.734;8.744;2023-07-29T12:55:47;1.67;;;1.58;;
10979;SDS011;5543;51.734;8.744;2023-07-29T12:58:16;1.75;;;1.65;;
10979;SDS011;5543;51.734;8.744;2023-07-29T13:00:44;1.60;;;1.50;;
10979;SDS011;5543;51.734;8.744;2023-07-29T13:03:13;1.65;;;1.55;;
10979;SDS011;5543;51.734;8.744;2023-07-29T13:05:41;1.60;;;1.50;;
10979;SDS011;5543;51.734;8.744;2023-07-29T13:08:11;1.90;;;1.70;;
10979;SDS011;5543;51.734;8.744;2023-07-29T13:10:39;1.25;;;1.17;;
10979;SDS011;5543;51.734;8.744;2023-07-29T13:13:07;1.50;;;1.40;;
10979;SDS011;5543;51.734;8.744;2023-07-29T13:15:35;1.33;;;1.23;;
10979;SDS011;5543;51.734;8.744;2023-07-29T13:18:04;1.60;;;1.50;;
10979;SDS011;5543;51.734;8.744;2023-07-29T13:20:32;1.00;;;1.00;;
10979;SDS011;5543;51.734;8.744;2023-07-29T13:23:01;3.13;;;1.30;;
10979;SDS011;5543;51.734;8.744;2023-07-29T13:25:30;1.50;;;1.27;;
10979;SDS011;5543;51.734;8.744;2023-07-29T13:27:59;1.52;;;1.42;;
10979;SDS011;5543;51.734;8.744;2023-07-29T13:30:27;1.38;;;1.27;;
10979;SDS011;5543;51.734;8.744;2023-07-29T13:32:55;1.60;;;1.50;;
10979;SDS011;5543;51.734;8.744;2023-07-29T13:35:24;1.50;;;1.20;;
10979;SDS011;5543;51.734;8.744;2023-07-29T13:37:52;1.60;;;1.50;;
10979;SDS011;5543;51.734;8.744;2023-07-29T13:40:20;1.60;;;1.38;;
10979;SDS011;5543;51.734;8.744;2023-07-29T13:42:50;2.05;;;1.42;;
10979;SDS011;5543;51.734;8.744;2023-07-29T13:45:18;1.42;;;1.27;;
10979;SDS011;5543;51.734;8.744;2023-07-29T13:47:47;1.63;;;1.20;;
10979;SDS011;5543;51.734;8.744;2023-07-29T13:50:15;2.08;;;1.88;;
10979;SDS011;5543;51.734;8.744;2023-07-29T13:52:44;1.95;;;1.40;;
10979;SDS011;5543;51.734;8.744;2023-07-29T13:55:12;1.60;;;1.40;;
10979;SDS011;5543;51.734;8.744;2023-07-29T13:57:40;1.20;;;1.10;;
10979;SDS011;5543;51.734;8.744;2023-07-29T14:00:10;1.25;;;1.15;;
10979;SDS011;5543;51.734;8.744;2023-07-29T14:02:39;1.65;;;1.17;;
10979;SDS011;5543;51.734;8.744;2023-07-29T14:05:07;1.30;;;1.20;;
10979;SDS011;5543;51.734;8.744;2023-07-29T14:07:36;1.40;;;1.30;;
10979;SDS011;5543;51.734;8.744;2023-07-29T14:10:04;1.30;;;1.17;;
10979;SDS011;5543;51.734;8.744;2023-07-29T14:12:33;2.10;;;1.50;;
10979;SDS011;5543;51.734;8.744;2023-07-29T14:15:01;1.40;;;1.30;;
10979;SDS011;5543;51.734;8.744;2023-07-29T14:17:32;1.67;;;1.30;;
10979;SDS011;5543;51.734;8.744;2023-07-29T14:20:00;1.20;;;1.10;;
10979;SDS011;5543;51.734;8.744;2023-07-29T14:22:29;1.30;;;1.20;;
10979;SDS011;5543;51.734;8.744;2023-07-29T14:24:57;1.50;;;1.17;;
10979;SDS011;5543;51.734;8.744;2023-07-29T14:27:26;3.90;;;3.50;;
10979;SDS011;5543;51.734;8.744;2023-07-29T14:29:55;5.50;;;3.30;;
10979;SDS011;5543;51.734;8.744;2023-07-29T14:32:23;1.95;;;1.33;;
10979;SDS011;5543;51.734;8.744;2023-07-29T14:34:53;1.48;;;1.38;;
10979;SDS011;5543;51.734;8.744;2023-07-29T14:37:21;1.30;;;1.20;;
10979;SDS011;5543;51.734;8.744;2023-07-29T14:39:49;1.58;;;1.48;;
10979;SDS011;5543;51.734;8.744;2023-07-29T14:42:17;1.85;;;1.50;;
10979;SDS011;5543;51.734;8.744;2023-07-29T14:44:45;1.20;;;1.10;;
10979;SDS011;5543;51.734;8.744;2023-07-29T14:47:13;1.85;;;1.42;;
10979;SDS011;5543;51.734;8.744;2023-07-29T14:49:41;1.95;;;1.58;;
10979;SDS011;5543;51.734;8.744;2023-07-29T14:52:12;1.40;;;1.30;;
10979;SDS011;5543;51.734;8.744;2023-07-29T14:54:40;1.58;;;1.48;;
10979;SDS011;5543;51.734;8.744;2023-07-29T14:57:09;1.70;;;1.60;;
10979;SDS011;5543;51.734;8.744;2023-07-29T14:59:38;1.85;;;1.60;;
10979;SDS011;5543;51.734;8.744;2023-07-29T15:02:06;1.95;;;1.67;;
10979;SDS011;5543;51.734;8.744;2023-07-29T15:04:34;3.08;;;1.70;;
10979;SDS011;5543;51.734;8.744;2023-07-29T15:07:03;1.95;;;1.60;;
10979;SDS011;5543;51.734;8.744;2023-07-29T15:09:33;1.52;;;1.42;;
10979;SDS011;5543;51.734;8.744;2023-07-29T15:12:01;1.42;;;1.33;;
10979;SDS011;5543;51.734;8.744;2023-07-29T15:14:29;1.30;;;1.20;;
10979;SDS011;5543;51.734;8.744;2023-07-29T15:16:58;1.17;;;1.08;;
10979;SDS011;5543;51.734;8.744;2023-07-29T15:19:26;1.20;;;1.10;;
10979;SDS011;5543;51.734;8.744;2023-07-29T15:21:54;1.23;;;1.13;;
10979;SDS011;5543;51.734;8.744;2023-07-29T15:24:22;1.77;;;1.42;;
10979;SDS011;5543;51.734;8.744;2023-07-29T15:26:52;1.38;;;1.20;;
10979;SDS011;5543;51.734;8.744;2023-07-29T15:29:20;1.75;;;1.30;;
10979;SDS011;5543;51.734;8.744;2023-07-29T15:31:48;2.17;;;1.60;;
10979;SDS011;5543;51.734;8.744;2023-07-29T15:34:17;1.20;;;1.10;;